Time;durP1;ratioP1;P1;durP2;ratioP2;P2;SDS_P1;SDS_P2;PMS_P1;PMS_P2;Temp;Humidity;BMP_temperature;BMP_pressure;BME280_temperature;BME280_humidity;BME280_pressure;Samples;Min_cycle;Max_cycle;Signal;HPM_P1;HPM_P2
2022/08/01 00:04:39;;;;;;;8.85;5.45;;;;;;;17.78;99.01;101444.41;10420720;28;20053;-76
2022/08/01 00:09:40;;;;;;;7.80;5.35;;;;;;;17.83;98.56;101453.38;10402922;28;20119;-76
2022/08/01 00:14:40;;;;;;;12.77;8.50;;;;;;;17.86;98.66;101454.31;10444150;28;20396;-76
2022/08/01 00:19:41;;;;;;;13.23;7.30;;;;;;;17.91;97.79;101458.00;10394821;28;20592;-77
2022/08/01 00:24:41;;;;;;;10.95;9.05;;;;;;;17.91;98.25;101467.69;10444211;28;20112;-76
2022/08/01 00:29:42;;;;;;;12.38;8.18;;;;;;;17.95;97.80;101455.44;10423769;28;20072;-77
2022/08/01 00:34:43;;;;;;;12.20;8.88;;;;;;;17.97;97.54;101457.28;10408737;28;20496;-76
2022/08/01 00:39:43;;;;;;;14.02;8.90;;;;;;;17.99;97.42;101449.34;10442116;28;20045;-77
2022/08/01 00:44:44;;;;;;;10.55;7.45;;;;;;;18.01;97.12;101452.97;10445369;28;20117;-76
2022/08/01 00:49:44;;;;;;;8.63;6.15;;;;;;;18.00;97.02;101444.16;10426218;28;20124;-77
2022/08/01 00:54:45;;;;;;;13.02;5.68;;;;;;;17.98;97.39;101453.78;10409419;28;20041;-76
2022/08/01 00:59:45;;;;;;;9.82;6.30;;;;;;;17.99;97.35;101449.34;10410490;28;20056;-77
2022/08/01 01:04:46;;;;;;;9.35;6.20;;;;;;;17.98;97.29;101464.38;10426166;28;20048;-77
2022/08/01 01:09:46;;;;;;;7.57;6.15;;;;;;;17.99;97.25;101459.94;10407920;28;20036;-76
2022/08/01 01:14:56;;;;;;;7.95;6.60;;;;;;;17.97;97.38;101459.94;10442462;28;20045;-76
2022/08/01 01:19:57;;;;;;;11.50;6.10;;;;;;;17.97;97.94;101457.28;10386265;28;20511;-76
2022/08/01 01:25:30;;;;;;;9.05;6.95;;;;;;;17.89;98.47;101457.06;10396452;28;20052;-76
2022/08/01 01:30:32;;;;;;;13.05;6.07;;;;;;;17.84;99.09;101456.03;10440667;28;20076;-76
2022/08/01 01:35:35;;;;;;;9.25;7.80;;;;;;;17.76;100.00;101455.84;10392290;28;20037;-76
2022/08/01 01:40:36;;;;;;;11.45;7.10;;;;;;;17.70;100.00;101460.97;10405259;28;20033;-76
2022/08/01 01:45:37;;;;;;;11.73;7.40;;;;;;;17.67;100.00;101458.22;10409570;28;20490;-76
2022/08/01 01:50:37;;;;;;;12.15;8.82;;;;;;;17.59;100.00;101454.47;10423695;28;20159;-76
2022/08/01 01:55:38;;;;;;;11.07;8.65;;;;;;;17.59;100.00;101452.72;10391642;28;20129;-75
2022/08/01 02:00:39;;;;;;;17.50;8.88;;;;;;;17.56;100.00;101446.44;10408416;28;20041;-75
2022/08/01 02:05:40;;;;;;;13.63;8.90;;;;;;;17.49;100.00;101437.44;10391252;28;20509;-76
2022/08/01 02:10:40;;;;;;;13.00;9.18;;;;;;;17.45;100.00;101438.19;10406739;28;20120;-76
2022/08/01 02:15:41;;;;;;;14.15;11.00;;;;;;;17.43;100.00;101442.53;10406391;28;20045;-75
2022/08/01 02:20:41;;;;;;;12.27;9.13;;;;;;;17.44;100.00;101439.97;10398332;28;20029;-76
2022/08/01 02:25:44;;;;;;;13.57;9.13;;;;;;;17.40;100.00;101442.47;10394931;28;20048;-75
2022/08/01 02:30:46;;;;;;;17.05;10.02;;;;;;;17.35;100.00;101442.34;10406053;28;20498;-75
2022/08/01 02:35:52;;;;;;;14.45;10.45;;;;;;;17.37;100.00;101440.63;10397544;28;20400;-74
2022/08/01 02:40:53;;;;;;;13.00;10.38;;;;;;;17.42;100.00;101448.69;10405064;28;20056;-75
2022/08/01 02:45:55;;;;;;;17.05;12.32;;;;;;;17.43;100.00;101447.84;10395985;28;20052;-76
2022/08/01 02:50:58;;;;;;;19.83;12.02;;;;;;;17.45;100.00;101451.41;10390865;28;20032;-75
2022/08/01 02:55:58;;;;;;;18.05;11.18;;;;;;;17.49;100.00;101449.78;10397511;28;20401;-76
2022/08/01 03:00:59;;;;;;;15.80;11.48;;;;;;;17.50;100.00;101452.44;10422061;28;20128;-76
2022/08/01 03:05:59;;;;;;;16.35;12.40;;;;;;;17.49;100.00;101439.19;10409819;28;20484;-76
2022/08/01 03:11:00;;;;;;;19.15;13.35;;;;;;;17.53;100.00;101447.25;10405725;28;20063;-76
2022/08/01 03:16:00;;;;;;;21.95;14.07;;;;;;;17.52;100.00;101442.81;10384948;28;20121;-76
2022/08/01 03:21:01;;;;;;;19.13;13.45;;;;;;;17.50;100.00;101435.69;10422404;28;20060;-76
2022/08/01 03:26:01;;;;;;;23.48;15.43;;;;;;;17.46;100.00;101442.63;10403163;28;20111;-77
2022/08/01 03:31:02;;;;;;;22.65;15.85;;;;;;;17.45;100.00;101448.78;10381734;28;20136;-76
2022/08/01 03:36:03;;;;;;;23.30;15.20;;;;;;;17.44;100.00;101453.19;10400976;28;20044;-76
2022/08/01 03:41:09;;;;;;;28.30;17.25;;;;;;;17.43;100.00;101451.41;10398424;28;20106;-75
2022/08/01 03:46:11;;;;;;;26.85;17.30;;;;;;;17.43;100.00;101442.53;10404398;28;20044;-75
2022/08/01 03:51:12;;;;;;;26.33;20.15;;;;;;;17.44;100.00;101452.28;10387747;28;20052;-75
2022/08/01 03:56:12;;;;;;;34.42;18.83;;;;;;;17.45;100.00;101448.78;10400162;28;20539;-75
2022/08/01 04:01:13;;;;;;;28.73;19.90;;;;;;;17.45;100.00;101454.06;10403168;28;20133;-75
2022/08/01 04:06:13;;;;;;;34.47;22.33;;;;;;;17.45;100.00;101454.97;10419901;28;20068;-76
2022/08/01 04:11:14;;;;;;;31.17;20.73;;;;;;;17.44;100.00;101457.56;10372429;28;20477;-76
2022/08/01 04:16:14;;;;;;;33.15;21.77;;;;;;;17.43;100.00;101453.13;10393250;28;20041;-75
2022/08/01 04:21:17;;;;;;;29.67;19.75;;;;;;;17.43;100.00;101453.13;10418829;28;20453;-76
2022/08/01 04:26:18;;;;;;;37.13;21.33;;;;;;;17.46;100.00;101462.06;10398954;28;20029;-76
2022/08/01 04:31:19;;;;;;;33.67;20.45;;;;;;;17.45;100.00;101473.50;10418306;28;20099;-76
2022/08/01 04:36:19;;;;;;;32.25;21.27;;;;;;;17.46;100.00;101474.38;10415974;28;20432;-75
2022/08/01 04:41:20;;;;;;;44.80;25.98;;;;;;;17.51;100.00;101477.19;10400016;28;20413;-75
2022/08/01 04:46:21;;;;;;;32.10;21.13;;;;;;;17.52;100.00;101485.16;10422815;28;20037;-77
2022/08/01 04:51:24;;;;;;;29.30;20.63;;;;;;;17.52;100.00;101493.09;10424400;28;20041;-75
2022/08/01 04:56:24;;;;;;;36.72;21.70;;;;;;;17.53;100.00;101486.06;10439610;28;20041;-74
2022/08/01 05:01:25;;;;;;;40.15;23.40;;;;;;;17.52;100.00;101487.78;10443124;28;20072;-77
2022/08/01 05:06:25;;;;;;;32.67;20.58;;;;;;;17.58;100.00;101500.31;10434993;28;20404;-75
2022/08/01 05:11:26;;;;;;;31.63;22.88;;;;;;;17.66;100.00;101492.59;10415189;28;20041;-75
2022/08/01 05:16:26;;;;;;;40.53;24.38;;;;;;;17.72;100.00;101495.41;10423627;28;20048;-76
2022/08/01 05:21:27;;;;;;;42.30;27.23;;;;;;;17.85;100.00;101505.47;10413951;28;20507;-76
2022/08/01 05:26:27;;;;;;;39.60;22.88;;;;;;;17.88;100.00;101499.41;10443244;28;20033;-76
2022/08/01 05:31:28;;;;;;;30.67;21.17;;;;;;;17.95;100.00;101495.16;10398915;28;20523;-76
2022/08/01 05:36:29;;;;;;;35.38;21.52;;;;;;;18.06;100.00;101506.97;10424027;28;20053;-76
2022/08/01 05:41:29;;;;;;;40.20;22.85;;;;;;;18.16;100.00;101502.81;10397343;28;20098;-77
2022/08/01 05:46:30;;;;;;;30.67;22.05;;;;;;;18.31;100.00;101507.59;10422782;28;20044;-77
2022/08/01 05:51:31;;;;;;;36.22;22.85;;;;;;;18.32;100.00;101505.03;10420898;28;20045;-77
2022/08/01 05:56:32;;;;;;;32.90;20.75;;;;;;;18.40;100.00;101515.78;10421653;28;20069;-77
2022/08/01 06:01:32;;;;;;;29.13;20.52;;;;;;;18.60;100.00;101510.09;10420252;28;20062;-76
2022/08/01 06:06:33;;;;;;;31.50;21.52;;;;;;;18.89;100.00;101510.81;10414294;28;20036;-76
2022/08/01 06:11:33;;;;;;;32.85;20.45;;;;;;;18.97;97.99;101510.13;10410798;28;20452;-76
2022/08/01 06:16:34;;;;;;;29.35;20.27;;;;;;;18.84;95.84;101504.53;10402366;28;20128;-77
2022/08/01 06:21:34;;;;;;;41.10;22.40;;;;;;;18.93;96.88;101509.13;10421105;28;20094;-76
2022/08/01 06:26:36;;;;;;;30.13;19.77;;;;;;;19.04;96.11;101505.00;10430447;28;20540;-75
2022/08/01 06:31:37;;;;;;;;;;;;;;;19.03;94.86;101502.31;10424338;28;20407;-75
2022/08/01 06:36:37;;;;;;;30.45;19.15;;;;;;;19.23;95.13;101497.44;10421322;28;19921;-78
2022/08/01 06:41:38;;;;;;;22.40;17.42;;;;;;;20.08;90.75;101512.47;10438892;28;20045;-78
2022/08/01 06:46:38;;;;;;;23.52;16.00;;;;;;;20.62;83.57;101520.50;10436091;28;20141;-78
2022/08/01 06:51:39;;;;;;;23.52;17.08;;;;;;;20.36;82.69;101514.72;10389179;28;20061;-78
2022/08/01 06:56:39;;;;;;;25.45;17.73;;;;;;;20.20;84.07;101518.91;10381523;28;20101;-76
2022/08/01 07:01:40;;;;;;;25.25;17.77;;;;;;;20.43;84.91;101524.59;10430630;28;20134;-79
2022/08/01 07:06:40;;;;;;;25.65;19.77;;;;;;;20.62;83.25;101516.94;10417961;28;20044;-77
2022/08/01 07:11:41;;;;;;;21.77;15.27;;;;;;;20.47;84.00;101518.47;10427551;28;20091;-77
2022/08/01 07:16:41;;;;;;;24.17;18.25;;;;;;;20.26;84.04;101529.63;10419317;28;20052;-77
2022/08/01 07:21:42;;;;;;;26.17;17.88;;;;;;;20.33;83.99;101522.66;10404128;28;20515;-77
2022/08/01 07:26:45;;;;;;;21.67;15.95;;;;;;;20.69;83.10;101521.47;10418909;28;20116;-77
2022/08/01 07:31:45;;;;;;;22.25;15.73;;;;;;;21.19;80.69;101524.91;10419808;28;20072;-76
2022/08/01 07:36:46;;;;;;;21.60;16.55;;;;;;;21.41;77.99;101528.78;10401545;28;20057;-77
2022/08/01 07:41:47;;;;;;;26.48;18.65;;;;;;;21.60;75.98;101535.22;10418707;28;20033;-78
2022/08/01 07:46:47;;;;;;;23.00;18.50;;;;;;;21.59;75.65;101541.44;10404775;28;20547;-78
2022/08/01 07:51:48;;;;;;;25.77;20.67;;;;;;;21.45;75.98;101543.03;10438751;28;20045;-78
2022/08/01 07:56:48;;;;;;;25.60;18.38;;;;;;;21.12;76.61;101543.47;10438123;28;20465;-79
2022/08/01 08:01:50;;;;;;;21.60;14.73;;;;;;;22.49;73.02;101537.13;10387873;28;20144;-78
2022/08/01 08:06:53;;;;;;;22.58;18.70;;;;;;;23.28;68.21;101544.84;10403338;28;20029;-77
2022/08/01 08:11:53;;;;;;;16.50;13.90;;;;;;;22.97;68.53;101545.53;10435128;28;20084;-78
2022/08/01 08:16:54;;;;;;;20.43;15.43;;;;;;;25.18;62.13;101538.06;10440592;28;20100;-79
2022/08/01 08:21:54;;;;;;;15.67;11.97;;;;;;;27.82;55.27;101536.06;10405083;28;20174;-79
2022/08/01 08:26:56;;;;;;;14.93;9.97;;;;;;;28.25;50.15;101542.63;10412485;28;20033;-79
2022/08/01 08:31:57;;;;;;;12.40;8.77;;;;;;;27.10;55.34;101542.28;10398135;28;20553;-78
2022/08/01 08:36:58;;;;;;;11.00;9.48;;;;;;;29.53;47.16;101536.75;10405148;28;20045;-79
2022/08/01 08:41:59;;;;;;;10.15;5.80;;;;;;;29.27;48.37;101548.94;10409757;28;20041;-79
2022/08/01 08:47:01;;;;;;;10.75;7.25;;;;;;;27.26;50.64;101553.72;10444153;28;20041;-79
2022/08/01 08:52:01;;;;;;;;;;;;;;;24.33;60.30;101563.06;10426445;28;20060;-78
2022/08/01 08:57:02;;;;;;;5.63;3.92;;;;;;;22.94;65.30;101552.59;10426862;28;20348;-78
2022/08/01 09:02:04;;;;;;;4.93;2.13;;;;;;;26.14;58.33;101550.16;10404544;28;20041;-79
2022/08/01 09:07:05;;;;;;;2.38;1.98;;;;;;;29.35;49.32;101546.09;10441606;28;20037;-79
2022/08/01 09:12:06;;;;;;;3.63;2.47;;;;;;;29.53;45.03;101555.63;10443383;28;20041;-80
2022/08/01 09:17:10;;;;;;;4.82;2.25;;;;;;;26.38;53.37;101562.56;10417161;28;20037;-80
2022/08/01 09:22:17;;;;;;;4.20;2.13;;;;;;;27.57;52.88;101562.38;10392169;28;20436;-79
2022/08/01 09:27:19;;;;;;;2.20;1.52;;;;;;;29.62;45.66;101559.03;10423833;28;20116;-79
2022/08/01 09:32:23;;;;;;;1.75;1.17;;;;;;;27.60;46.41;101565.00;10419381;28;20446;-80
2022/08/01 09:37:29;;;;;;;4.32;1.83;;;;;;;28.04;47.66;101560.84;10383784;28;20049;-79
2022/08/01 09:42:30;;;;;;;2.58;1.65;;;;;;;31.01;43.40;101547.66;10393723;28;20481;-81
2022/08/01 09:47:40;;;;;;;2.80;2.20;;;;;;;31.76;41.17;101553.69;10401724;28;20037;-81
2022/08/01 09:52:40;;;;;;;2.60;1.50;;;;;;;31.50;39.76;101560.72;10385673;28;20101;-81
2022/08/01 09:57:41;;;;;;;3.05;1.52;;;;;;;29.13;41.50;101564.47;10400750;28;20123;-80
2022/08/01 10:02:41;;;;;;;2.17;1.33;;;;;;;27.14;46.96;101563.72;10358631;28;20065;-79
2022/08/01 10:08:03;;;;;;;5.23;2.00;;;;;;;27.41;47.38;101554.44;10398826;28;20155;-80
2022/08/01 10:13:04;;;;;;;2.75;1.83;;;;;;;29.03;43.87;101555.69;10388045;28;20059;-79
2022/08/01 10:18:06;;;;;;;3.13;1.67;;;;;;;31.54;36.68;101548.00;10392557;28;20045;-79
2022/08/01 10:23:06;;;;;;;2.42;1.20;;;;;;;30.94;38.45;101555.97;10391352;28;20389;-79
2022/08/01 10:28:13;;;;;;;3.47;1.80;;;;;;;29.43;41.70;101560.34;10394093;28;20120;-81
2022/08/01 10:33:14;;;;;;;4.50;2.25;;;;;;;26.93;43.15;101555.84;10401657;28;20032;-79
2022/08/01 10:38:14;;;;;;;3.30;2.00;;;;;;;27.44;44.95;101567.84;10416744;28;20041;-79
2022/08/01 10:43:16;;;;;;;2.83;2.20;;;;;;;28.86;43.39;101559.59;10394558;28;20072;-79
2022/08/01 10:48:20;;;;;;;;;;;;;;;30.02;39.48;101552.81;10407112;28;20037;-78
2022/08/01 10:53:22;;;;;;;2.90;1.70;;;;;;;28.31;42.92;101558.66;10420622;28;19926;-81
2022/08/01 10:58:28;;;;;;;3.45;2.33;;;;;;;27.06;47.94;101556.63;10418605;28;20095;-77
2022/08/01 11:03:34;;;;;;;2.33;1.83;;;;;;;29.59;40.92;101552.81;10407691;28;20380;-78
2022/08/01 11:08:36;;;;;;;2.60;1.60;;;;;;;31.76;36.38;101542.84;10417522;28;20553;-77
2022/08/01 11:13:58;;;;;;;5.70;2.63;;;;;;;32.53;34.65;101546.75;10402410;28;20036;-79
2022/08/01 11:18:58;;;;;;;3.03;2.65;;;;;;;31.30;36.85;101542.41;10424716;28;20040;-80
2022/08/01 11:23:59;;;;;;;3.77;2.47;;;;;;;28.79;41.34;101549.84;10421929;28;20564;-80
2022/08/01 11:29:29;;;;;;;3.87;2.00;;;;;;;31.44;35.36;101540.16;10403721;28;20123;-80
2022/08/01 11:34:52;;;;;;;4.45;3.30;;;;;;;30.95;37.59;101544.25;10402163;28;20040;-79
2022/08/01 11:40:16;;;;;;;4.00;3.28;;;;;;;31.85;34.65;101536.28;10395799;28;20501;-78
2022/08/01 11:45:17;;;;;;;2.08;1.60;;;;;;;32.39;33.09;101542.69;10420568;28;20044;-78
2022/08/01 11:50:30;;;;;;;5.30;2.40;;;;;;;32.60;33.31;101541.06;10422818;28;20063;-80
2022/08/01 11:55:31;;;;;;;3.60;2.10;;;;;;;31.08;34.08;101533.97;10429345;28;20051;-79
2022/08/01 12:00:32;;;;;;;2.80;1.88;;;;;;;29.22;39.52;101544.56;10410348;28;20033;-80
2022/08/01 12:05:34;;;;;;;4.00;2.30;;;;;;;28.38;38.56;101552.28;10412613;28;20048;-80
2022/08/01 12:10:37;;;;;;;1.67;1.40;;;;;;;27.43;41.56;101549.94;10427892;28;20033;-80
2022/08/01 12:15:38;;;;;;;5.65;4.53;;;;;;;27.76;42.68;101541.53;10428009;28;20395;-79
2022/08/01 12:20:41;;;;;;;2.57;1.80;;;;;;;28.32;41.84;101552.38;10411876;28;20116;-79
2022/08/01 12:25:45;;;;;;;2.38;1.67;;;;;;;29.16;40.65;101540.16;10400546;28;20036;-79
2022/08/01 12:30:47;;;;;;;3.15;1.95;;;;;;;28.50;43.07;101556.59;10445672;28;20516;-79
2022/08/01 12:35:47;;;;;;;2.60;1.80;;;;;;;27.61;43.68;101559.63;10409924;28;20033;-78
2022/08/01 12:40:48;;;;;;;2.90;1.80;;;;;;;27.18;45.71;101552.91;10410114;28;20041;-84
2022/08/01 12:45:49;;;;;;;7.57;2.20;;;;;;;27.88;48.21;101572.72;10433435;28;20029;-79
2022/08/01 12:50:49;;;;;;;4.60;2.28;;;;;;;27.24;48.86;101578.84;10393857;28;20488;-80
2022/08/01 12:55:51;;;;;;;3.80;2.33;;;;;;;27.25;51.02;101575.25;10393833;28;20575;-79
2022/08/01 13:01:05;;;;;;;4.97;2.10;;;;;;;28.13;48.17;101578.69;10410328;28;20392;-79
2022/08/01 13:06:15;;;;;;;3.53;1.98;;;;;;;28.01;47.05;101593.16;10444358;28;20112;-81
2022/08/01 13:11:16;;;;;;;5.60;2.95;;;;;;;27.89;48.08;101594.22;10427299;28;20615;-79
2022/08/01 13:16:18;;;;;;;5.90;1.73;;;;;;;28.50;47.05;101596.97;10423874;28;20045;-79
2022/08/01 13:21:23;;;;;;;4.72;1.90;;;;;;;28.90;45.94;101586.47;10426796;28;20132;-78
2022/08/01 13:26:42;;;;;;;3.75;2.22;;;;;;;30.03;42.54;101586.97;10409767;28;20511;-82
2022/08/01 13:31:43;;;;;;;3.25;1.60;;;;;;;29.52;43.81;101594.28;10427099;28;20045;-79
2022/08/01 13:36:44;;;;;;;4.93;2.53;;;;;;;28.25;44.39;101599.13;10380022;28;20045;-78
2022/08/01 13:41:44;;;;;;;3.50;1.87;;;;;;;28.39;45.72;101593.56;10369169;28;20096;-78
2022/08/01 13:46:47;;;;;;;3.90;2.25;;;;;;;28.09;46.63;101601.13;10384632;28;20034;-77
2022/08/01 13:51:49;;;;;;;6.18;2.13;;;;;;;26.99;46.75;101584.47;10384347;28;20034;-78
2022/08/01 13:56:50;;;;;;;1.88;1.33;;;;;;;27.15;48.36;101592.38;10377250;28;20037;-76
2022/08/01 14:01:51;;;;;;;2.22;1.40;;;;;;;27.48;47.98;101583.03;10376822;28;20037;-77
2022/08/01 14:06:51;;;;;;;4.03;1.73;;;;;;;27.76;45.52;101580.03;10384299;28;20371;-78
2022/08/01 14:11:52;;;;;;;1.53;1.33;;;;;;;27.81;46.25;101590.75;10382057;28;20120;-78
2022/08/01 14:16:52;;;;;;;4.13;1.53;;;;;;;27.58;47.42;101586.56;10375943;28;20050;-77
2022/08/01 14:21:53;;;;;;;2.80;1.60;;;;;;;27.72;44.06;101581.00;10376560;28;20038;-78
2022/08/01 14:26:53;;;;;;;2.03;1.50;;;;;;;27.36;45.31;101586.78;10385101;28;20057;-78
2022/08/01 14:31:54;;;;;;;5.07;1.73;;;;;;;26.83;47.32;101581.03;10382154;28;20077;-78
2022/08/01 14:36:54;;;;;;;4.83;1.70;;;;;;;26.63;47.45;101589.22;10392750;28;20128;-78
2022/08/01 14:41:55;;;;;;;4.07;1.40;;;;;;;26.91;46.56;101589.91;10399082;28;20051;-77
2022/08/01 14:46:55;;;;;;;4.60;1.50;;;;;;;27.84;43.23;101582.66;10365550;28;20037;-77
2022/08/01 14:51:56;;;;;;;3.23;1.63;;;;;;;28.01;43.95;101584.22;10398384;28;20059;-78
2022/08/01 14:56:56;;;;;;;5.10;1.50;;;;;;;27.66;44.39;101573.00;10398298;28;20119;-78
2022/08/01 15:01:57;;;;;;;2.00;1.13;;;;;;;27.87;44.71;101579.00;10399997;28;20052;-77
2022/08/01 15:06:57;;;;;;;3.00;1.43;;;;;;;27.53;44.56;101583.91;10399235;28;20053;-78
2022/08/01 15:12:01;;;;;;;3.67;1.80;;;;;;;27.90;43.72;101581.66;10398331;28;20507;-78
2022/08/01 15:17:05;;;;;;;5.20;1.67;;;;;;;28.22;42.20;101583.03;10397626;28;20045;-77
2022/08/01 15:22:05;;;;;;;2.80;1.83;;;;;;;27.81;43.17;101588.94;10397241;28;20064;-78
2022/08/01 15:27:06;;;;;;;2.97;1.53;;;;;;;27.11;43.64;101592.41;10396201;28;20038;-78
2022/08/01 15:32:06;;;;;;;3.40;1.23;;;;;;;26.76;43.13;101590.91;10396892;28;20132;-78
2022/08/01 15:37:07;;;;;;;5.17;2.20;;;;;;;25.79;46.46;101598.63;10433155;28;20123;-78
2022/08/01 15:42:13;;;;;;;4.28;1.50;;;;;;;25.37;44.56;101592.47;10387081;28;20041;-79
2022/08/01 15:47:13;;;;;;;2.42;1.80;;;;;;;25.34;43.97;101592.47;10395468;28;20045;-77
2022/08/01 15:52:14;;;;;;;3.30;1.97;;;;;;;25.12;46.88;101597.88;10419542;28;20496;-78
2022/08/01 15:57:14;;;;;;;6.27;2.00;;;;;;;25.22;47.66;101604.13;10398377;28;20037;-79
2022/08/01 16:02:15;;;;;;;5.03;2.03;;;;;;;25.04;47.46;101603.25;10420590;28;20099;-78
2022/08/01 16:07:15;;;;;;;4.73;1.60;;;;;;;24.82;47.10;101609.53;10437107;28;20509;-79
2022/08/01 16:12:16;;;;;;;5.70;1.90;;;;;;;24.69;47.52;101605.91;10417071;28;20037;-79
2022/08/01 16:17:17;;;;;;;6.67;2.60;;;;;;;24.39;50.16;101605.88;10389794;28;20036;-79
2022/08/01 16:22:17;;;;;;;4.07;2.33;;;;;;;24.21;49.89;101620.09;10417251;28;20033;-79
2022/08/01 16:27:18;;;;;;;4.67;2.00;;;;;;;24.15;48.29;101612.03;10419787;28;20140;-78
2022/08/01 16:32:18;;;;;;;3.33;2.23;;;;;;;23.88;50.36;101609.25;10391773;28;20500;-78
2022/08/01 16:37:22;;;;;;;2.97;2.20;;;;;;;23.65;50.34;101597.56;10418533;28;20094;-79
2022/08/01 16:42:22;;;;;;;6.45;3.72;;;;;;;23.51;49.23;101598.41;10437138;28;20056;-77
2022/08/01 16:47:23;;;;;;;4.17;2.97;;;;;;;23.06;48.63;101599.84;10408793;28;20037;-78
2022/08/01 16:52:24;;;;;;;10.23;7.10;;;;;;;22.85;50.53;101601.47;10392132;28;20128;-77
2022/08/01 16:57:24;;;;;;;4.43;1.80;;;;;;;22.66;49.04;101590.63;10409281;28;20127;-78
2022/08/01 17:02:25;;;;;;;7.77;2.07;;;;;;;22.59;50.24;101602.13;10428520;28;20403;-79
2022/08/01 17:07:25;;;;;;;7.47;2.50;;;;;;;22.62;52.27;101588.81;10443865;28;20171;-78
2022/08/01 17:12:26;;;;;;;5.27;2.50;;;;;;;22.63;52.64;101595.03;10396576;28;20116;-78
2022/08/01 17:17:27;;;;;;;2.70;2.33;;;;;;;22.64;52.01;101591.50;10440480;28;20052;-79
2022/08/01 17:22:28;;;;;;;3.20;1.97;;;;;;;22.46;51.33;101592.22;10443907;28;20045;-79
2022/08/01 17:27:30;;;;;;;6.43;2.60;;;;;;;22.21;54.15;101594.59;10461186;28;20056;-79
2022/08/01 17:32:33;;;;;;;5.90;2.72;;;;;;;22.08;53.78;101594.47;10414825;28;20507;-79
2022/08/01 17:37:34;;;;;;;5.95;3.00;;;;;;;21.88;52.51;101606.66;10398390;28;20076;-79
2022/08/01 17:42:35;;;;;;;7.32;3.80;;;;;;;21.89;53.25;101598.66;10441115;28;20044;-79
2022/08/01 17:47:38;;;;;;;8.88;3.17;;;;;;;21.87;53.67;101602.19;10405493;28;20033;-79
2022/08/01 17:52:38;;;;;;;4.57;2.15;;;;;;;21.49;55.99;101607.00;10390710;28;20127;-79
2022/08/01 17:57:39;;;;;;;4.72;2.58;;;;;;;21.37;55.52;101605.03;10424701;28;20120;-78
2022/08/01 18:02:42;;;;;;;7.60;2.28;;;;;;;21.39;55.39;101613.94;10440836;28;20107;-79
2022/08/01 18:07:43;;;;;;;5.45;2.47;;;;;;;20.92;58.40;101611.44;10423190;28;20034;-79
2022/08/01 18:12:43;;;;;;;7.55;2.90;;;;;;;20.64;58.26;101613.59;10424577;28;20128;-79
2022/08/01 18:17:44;;;;;;;5.25;2.83;;;;;;;20.57;58.46;101624.97;10408292;28;20044;-79
2022/08/01 18:22:47;;;;;;;11.27;3.13;;;;;;;20.15;60.83;101630.41;10433914;28;20481;-78
2022/08/01 18:27:47;;;;;;;3.40;2.67;;;;;;;19.84;62.50;101635.03;10441769;28;20397;-78
2022/08/01 18:32:48;;;;;;;6.85;2.58;;;;;;;19.57;63.88;101636.22;10401886;28;20068;-78
2022/08/01 18:37:51;;;;;;;4.85;2.15;;;;;;;19.31;64.91;101635.63;10423452;28;20120;-79
2022/08/01 18:42:53;;;;;;;6.68;2.92;;;;;;;19.07;66.12;101639.47;10408374;28;20037;-79
2022/08/01 18:47:54;;;;;;;7.20;2.50;;;;;;;18.93;66.18;101649.69;10421925;28;20100;-79
2022/08/01 18:52:55;;;;;;;4.87;2.57;;;;;;;19.07;66.07;101650.97;10422925;28;20365;-79
2022/08/01 18:57:55;;;;;;;5.75;3.35;;;;;;;19.07;66.39;101661.59;10373886;28;20116;-80
2022/08/01 19:02:56;;;;;;;11.25;2.92;;;;;;;18.60;68.15;101667.41;10407699;28;20183;-79
2022/08/01 19:07:58;;;;;;;9.40;2.88;;;;;;;18.14;70.22;101651.09;10406108;28;20064;-78
2022/08/01 19:13:00;;;;;;;7.57;2.42;;;;;;;17.97;72.92;101661.19;10407919;28;20041;-78
2022/08/01 19:18:01;;;;;;;9.57;4.37;;;;;;;17.72;73.81;101659.53;10420949;28;20044;-78
2022/08/01 19:24:15;;;;;;;4.88;2.67;;;;;;;17.43;76.24;101656.88;10407619;28;20043;-77
2022/08/01 19:28:26;;;;;;;6.93;3.40;;;;;;;17.07;76.50;101663.66;10371582;28;20064;-79
2022/08/01 19:33:26;;;;;;;6.32;3.45;;;;;;;16.67;78.25;101678.13;10383217;28;20043;-78
2022/08/01 19:38:29;;;;;;;6.88;2.70;;;;;;;16.32;80.14;101675.97;10360786;28;20040;-80
2022/08/01 19:43:30;;;;;;;7.70;3.42;;;;;;;16.05;82.25;101684.66;10420161;28;20106;-78
2022/08/01 19:48:40;;;;;;;5.38;3.22;;;;;;;15.89;83.42;101692.81;10458047;28;20090;-79
2022/08/01 19:53:48;;;;;;;4.95;3.25;;;;;;;15.82;84.15;101689.91;10439257;28;20470;-79
2022/08/01 19:58:52;;;;;;;6.50;3.40;;;;;;;15.66;84.81;101690.16;10406377;28;20045;-79
2022/08/01 20:03:52;;;;;;;12.20;3.70;;;;;;;15.43;85.46;101703.31;10413647;28;20049;-78
2022/08/01 20:08:53;;;;;;;11.55;4.13;;;;;;;15.13;86.41;101706.47;10421945;28;20476;-79
2022/08/01 20:13:59;;;;;;;8.65;3.72;;;;;;;14.98;88.22;101712.88;10409616;28;20029;-77
2022/08/01 20:18:59;;;;;;;10.07;3.90;;;;;;;15.05;89.04;101721.06;10384599;28;20048;-77
2022/08/01 20:24:00;;;;;;;5.38;4.72;;;;;;;14.85;89.54;101718.47;10411455;28;20041;-77
2022/08/01 20:29:01;;;;;;;7.00;3.72;;;;;;;14.65;89.90;101723.72;10424942;28;20051;-77
2022/08/01 20:34:04;;;;;;;13.13;5.18;;;;;;;14.44;90.58;101721.03;10403200;28;20369;-77
2022/08/01 20:39:04;;;;;;;7.45;4.38;;;;;;;14.27;90.91;101722.88;10408419;28;20124;-77
2022/08/01 20:44:05;;;;;;;10.57;4.20;;;;;;;14.23;92.58;101716.59;10425259;28;20045;-76
2022/08/01 20:49:07;;;;;;;12.80;4.82;;;;;;;14.12;93.16;101714.28;10406652;28;20045;-76
2022/08/01 20:54:07;;;;;;;9.77;4.43;;;;;;;14.04;93.55;101727.09;10425535;28;20041;-76
2022/08/01 20:59:12;;;;;;;10.43;4.80;;;;;;;14.01;93.60;101727.81;10425424;28;20039;-76
2022/08/01 21:04:41;;;;;;;8.20;4.93;;;;;;;13.93;93.32;101732.75;10425248;28;20033;-76
2022/08/01 21:09:42;;;;;;;9.05;4.60;;;;;;;13.86;93.75;101729.72;10424112;28;20033;-76
2022/08/01 21:14:49;;;;;;;15.38;4.50;;;;;;;13.74;93.32;101736.19;10406553;28;20036;-77
2022/08/01 21:19:52;;;;;;;7.95;4.50;;;;;;;13.61;94.46;101734.72;10405950;28;20549;-77
2022/08/01 21:24:56;;;;;;;7.45;5.53;;;;;;;13.51;94.49;101745.59;10408805;28;20048;-77
2022/08/01 21:29:57;;;;;;;8.48;5.00;;;;;;;13.53;94.12;101748.28;10390216;28;20044;-77
2022/08/01 21:34:57;;;;;;;6.05;4.03;;;;;;;13.43;93.00;101736.44;10424740;28;20455;-77
2022/08/01 21:39:59;;;;;;;9.15;3.92;;;;;;;13.35;93.46;101741.25;10421531;28;20131;-77
2022/08/01 21:45:00;;;;;;;6.00;4.27;;;;;;;13.18;93.40;101738.69;10425587;28;20115;-77
2022/08/01 21:50:01;;;;;;;7.03;4.50;;;;;;;13.03;93.90;101740.53;10409415;28;20068;-77
2022/08/01 21:55:12;;;;;;;10.40;4.38;;;;;;;12.94;94.09;101746.22;10424792;28;20033;-77
2022/08/01 22:00:17;;;;;;;6.68;3.90;;;;;;;12.87;94.75;101733.59;10393184;28;20045;-76
2022/08/01 22:05:18;;;;;;;10.70;4.18;;;;;;;12.82;94.40;101745.59;10401590;28;20175;-76
2022/08/01 22:10:19;;;;;;;7.60;4.45;;;;;;;12.73;94.39;101741.66;10414486;28;20066;-76
2022/08/01 22:15:22;;;;;;;6.07;3.83;;;;;;;12.65;94.53;101734.16;10407669;28;20137;-76
2022/08/01 22:20:25;;;;;;;4.97;3.88;;;;;;;12.56;94.55;101737.22;10407659;28;20064;-76
2022/08/01 22:25:28;;;;;;;;;;;;;;;12.41;95.17;101726.78;10441987;28;20037;-76
2022/08/01 22:30:28;;;;;;;9.00;4.45;;;;;;;12.27;94.49;101726.06;10440465;28;19929;-76
2022/08/01 22:35:29;;;;;;;13.32;5.57;;;;;;;12.29;95.36;101729.66;10412556;28;20037;-76
2022/08/01 22:40:31;;;;;;;9.55;4.25;;;;;;;12.27;95.12;101733.94;10406804;28;20068;-76
2022/08/01 22:46:05;;;;;;;11.55;5.60;;;;;;;12.27;95.24;101739.19;10404366;28;20037;-76
2022/08/01 22:51:12;;;;;;;7.32;4.20;;;;;;;12.27;95.29;101737.44;10371170;28;20045;-76
2022/08/01 22:56:12;;;;;;;5.68;3.97;;;;;;;12.12;95.73;101732.28;10407598;28;20480;-75
2022/08/01 23:01:17;;;;;;;5.68;3.58;;;;;;;12.00;96.02;101732.47;10395085;28;20048;-76